Terminal Aerodrome Forecast
Issued by NWS Glasgow, MT

Home | Current Version | Previous Version | Text Only | Print | Product List | Glossary On
Versions: 1 2 3 4 5 6 7 8 9 10 11 12 13 14
000
FTUS45 KGGW 281125 AAC
TAFGGW
TAF AMD
KGGW 281125Z 2811/2912 09009KT 1SM BR VCSH OVC003
     FM281500 14009KT 4SM -SHRA BR OVC006
     FM281600 26009KT P6SM -SHRA OVC015
     FM281800 29011KT P6SM VCSH BKN025
     FM290000 29012KT P6SM FEW150
     FM290300 VRB05KT P6SM SKC=

USA.gov is the U.S. government's official web portal to all federal, state and local government web resources and services.